createdAt,value
2018-06-04T00:00:39.642Z,0
2018-06-04T00:01:39.886Z,0
2018-06-04T00:02:39.894Z,0
2018-06-04T00:03:39.636Z,0
2018-06-04T00:04:39.357Z,0
2018-06-04T00:05:39.360Z,0
2018-06-04T00:06:39.368Z,0
2018-06-04T00:07:39.627Z,0
2018-06-04T00:08:39.383Z,0
2018-06-04T00:09:39.926Z,0
2018-06-04T00:10:39.980Z,0
2018-06-04T00:11:39.923Z,0
2018-06-04T00:12:39.918Z,0
2018-06-04T00:13:39.664Z,0
2018-06-04T00:14:39.650Z,0
2018-06-04T00:15:39.645Z,0
2018-06-04T00:16:39.651Z,0
2018-06-04T00:17:39.947Z,0
2018-06-04T00:18:39.407Z,0
2018-06-04T00:19:39.662Z,0
2018-06-04T00:20:39.390Z,0
2018-06-04T00:21:39.924Z,0
2018-06-04T00:22:39.177Z,0
2018-06-04T00:23:39.927Z,0
2018-06-04T00:24:39.695Z,0
2018-06-04T00:25:39.994Z,0
2018-06-04T00:26:39.683Z,0
2018-06-04T00:27:39.676Z,0
2018-06-04T00:28:39.417Z,0
2018-06-04T00:29:39.430Z,0
2018-06-04T00:30:39.166Z,0
2018-06-04T00:31:39.691Z,0
2018-06-04T00:32:39.417Z,0
2018-06-04T00:33:39.426Z,0
2018-06-04T00:34:39.181Z,0
2018-06-04T00:35:39.696Z,0
2018-06-04T00:36:39.979Z,0
2018-06-04T00:37:39.433Z,0
2018-06-04T00:38:39.437Z,0
2018-06-04T00:39:39.447Z,0
2018-06-04T00:40:39.752Z,0
2018-06-04T00:41:39.982Z,0
2018-06-04T00:42:39.446Z,0
2018-06-04T00:43:39.710Z,0
2018-06-04T00:44:39.967Z,0
2018-06-04T00:45:39.188Z,0
2018-06-04T00:46:39.719Z,0
2018-06-04T00:47:39.466Z,0
2018-06-04T00:48:39.210Z,0
2018-06-04T00:49:39.486Z,0
2018-06-04T00:50:39.778Z,0
2018-06-04T00:51:39.740Z,0
2018-06-04T00:52:40.058Z,0
2018-06-04T00:53:39.725Z,0
2018-06-04T00:54:39.477Z,0
2018-06-04T00:55:40.002Z,0
2018-06-04T00:56:39.468Z,0
2018-06-04T00:57:40.011Z,0
2018-06-04T00:58:39.738Z,0
2018-06-04T00:59:39.465Z,0
2018-06-04T01:00:39.208Z,0
2018-06-04T01:01:39.234Z,0
2018-06-04T01:02:39.740Z,0
2018-06-04T01:03:39.781Z,0
2018-06-04T01:04:39.495Z,0
2018-06-04T01:05:39.516Z,0
2018-06-04T01:06:39.748Z,0
2018-06-04T01:07:40.009Z,0
2018-06-04T01:08:39.261Z,0
2018-06-04T01:09:39.244Z,0
2018-06-04T01:10:39.809Z,0
2018-06-04T01:11:39.777Z,0
2018-06-04T01:12:39.237Z,0
2018-06-04T01:13:40.058Z,0
2018-06-04T01:14:39.763Z,0
2018-06-04T01:15:39.762Z,0
2018-06-04T01:16:39.513Z,0
2018-06-04T01:17:39.772Z,0
2018-06-04T01:18:39.514Z,0
2018-06-04T01:19:39.762Z,0
2018-06-04T01:20:39.771Z,0
2018-06-04T01:21:39.789Z,0
2018-06-04T01:22:40.052Z,0
2018-06-04T01:23:39.785Z,0
2018-06-04T01:24:39.783Z,0
2018-06-04T01:25:39.803Z,0
2018-06-04T01:26:39.596Z,0
2018-06-04T01:27:39.840Z,0
2018-06-04T01:28:39.521Z,0
2018-06-04T01:29:39.525Z,0
2018-06-04T01:30:39.521Z,0
2018-06-04T01:31:39.521Z,0
2018-06-04T01:32:39.265Z,0
2018-06-04T01:33:39.536Z,0
2018-06-04T01:34:39.828Z,0
2018-06-04T01:35:39.544Z,0
2018-06-04T01:36:40.047Z,0
2018-06-04T01:37:39.555Z,0
2018-06-04T01:38:39.809Z,0
2018-06-04T01:39:39.800Z,0
2018-06-04T01:40:40.112Z,0
2018-06-04T01:41:39.554Z,0
2018-06-04T01:42:40.069Z,0
2018-06-04T01:43:39.541Z,0
2018-06-04T01:44:39.305Z,0
2018-06-04T01:45:39.800Z,0
2018-06-04T01:46:39.541Z,0
2018-06-04T01:47:39.813Z,0
2018-06-04T01:48:39.288Z,0
2018-06-04T01:49:39.814Z,0
2018-06-04T01:50:40.083Z,0
2018-06-04T01:51:39.553Z,0
2018-06-04T01:52:39.854Z,0
2018-06-04T01:53:39.817Z,0
2018-06-04T01:54:39.828Z,0
2018-06-04T01:55:39.865Z,0
2018-06-04T01:56:39.594Z,0
2018-06-04T01:57:39.823Z,0
2018-06-04T01:58:39.830Z,0
2018-06-04T01:59:39.318Z,0
2018-06-04T02:00:39.562Z,0
2018-06-04T02:01:39.877Z,0
2018-06-04T02:02:39.827Z,0
2018-06-04T02:03:39.835Z,0
2018-06-04T02:04:39.850Z,0
2018-06-04T02:05:40.092Z,0
2018-06-04T02:06:39.843Z,0
2018-06-04T02:07:39.316Z,0
2018-06-04T02:08:39.836Z,0
2018-06-04T02:09:39.583Z,0
2018-06-04T02:10:40.175Z,0
2018-06-04T02:11:39.597Z,0
2018-06-04T02:12:39.600Z,0
2018-06-04T02:13:39.592Z,0
2018-06-04T02:14:39.613Z,0
2018-06-04T02:15:39.592Z,0
2018-06-04T02:16:40.113Z,0
2018-06-04T02:17:40.134Z,0
2018-06-04T02:18:40.141Z,0
2018-06-04T02:19:39.861Z,0
2018-06-04T02:20:39.857Z,0
2018-06-04T02:21:39.855Z,0
2018-06-04T02:22:39.601Z,0
2018-06-04T02:23:39.871Z,0
2018-06-04T02:24:40.122Z,0
2018-06-04T02:25:41.775Z,0
2018-06-04T02:26:39.608Z,0
2018-06-04T02:27:39.605Z,0
2018-06-04T02:28:40.124Z,0
2018-06-04T02:29:39.614Z,0
2018-06-04T02:30:40.135Z,0
2018-06-04T02:31:39.875Z,0
2018-06-04T02:32:39.872Z,4
2018-06-04T02:33:40.143Z,4
2018-06-04T02:34:39.609Z,4
2018-06-04T02:35:39.880Z,0
2018-06-04T02:36:40.147Z,0
2018-06-04T02:37:39.886Z,0
2018-06-04T02:38:39.889Z,4
2018-06-04T02:39:39.907Z,4
2018-06-04T02:40:39.885Z,4
2018-06-04T02:41:39.933Z,0
2018-06-04T02:42:40.153Z,4
2018-06-04T02:43:39.632Z,4
2018-06-04T02:44:39.640Z,4
2018-06-04T02:45:39.646Z,4
2018-06-04T02:46:40.146Z,4
2018-06-04T02:47:40.149Z,8
2018-06-04T02:48:39.620Z,8
2018-06-04T02:49:39.892Z,8
2018-06-04T02:50:39.897Z,8
2018-06-04T02:51:40.155Z,8
2018-06-04T02:52:39.900Z,8
2018-06-04T02:53:40.166Z,12
2018-06-04T02:54:40.186Z,12
2018-06-04T02:55:40.169Z,12
2018-06-04T02:56:40.222Z,16
2018-06-04T02:57:39.923Z,20
2018-06-04T02:58:39.966Z,20
2018-06-04T02:59:40.176Z,24
2018-06-04T03:00:40.178Z,28
2018-06-04T03:01:39.903Z,32
2018-06-04T03:02:39.922Z,36
2018-06-04T03:03:39.912Z,40
2018-06-04T03:04:39.914Z,48
2018-06-04T03:05:39.655Z,52
2018-06-04T03:06:40.170Z,60
2018-06-04T03:07:39.955Z,64
2018-06-04T03:08:40.176Z,72
2018-06-04T03:09:40.194Z,80
2018-06-04T03:10:40.180Z,88
2018-06-04T03:11:40.002Z,104
2018-06-04T03:12:39.922Z,112
2018-06-04T03:13:39.659Z,124
2018-06-04T03:14:40.188Z,140
2018-06-04T03:15:39.964Z,156
2018-06-04T03:16:39.665Z,168
2018-06-04T03:17:39.926Z,184
2018-06-04T03:18:39.925Z,204
2018-06-04T03:19:40.192Z,220
2018-06-04T03:20:39.928Z,240
2018-06-04T03:21:40.198Z,260
2018-06-04T03:22:39.673Z,280
2018-06-04T03:23:39.691Z,300
2018-06-04T03:24:39.677Z,324
2018-06-04T03:25:39.951Z,348
2018-06-04T03:26:40.195Z,372
2018-06-04T03:27:39.690Z,400
2018-06-04T03:28:39.733Z,428
2018-06-04T03:29:39.674Z,456
2018-06-04T03:30:40.199Z,492
2018-06-04T03:31:40.250Z,524
2018-06-04T03:32:39.957Z,560
2018-06-04T03:33:39.957Z,596
2018-06-04T03:34:39.410Z,632
2018-06-04T03:35:39.696Z,672
2018-06-04T03:36:39.704Z,712
2018-06-04T03:37:40.218Z,752
2018-06-04T03:38:39.692Z,800
2018-06-04T03:39:39.440Z,844
2018-06-04T03:40:39.693Z,888
2018-06-04T03:41:40.267Z,932
2018-06-04T03:42:39.696Z,976
2018-06-04T03:43:39.457Z,1020
2018-06-04T03:44:39.976Z,1068
2018-06-04T03:45:39.974Z,1116
2018-06-04T03:46:39.697Z,1164
2018-06-04T03:47:39.710Z,1216
2018-06-04T03:48:39.965Z,1268
2018-06-04T03:49:40.019Z,1320
2018-06-04T03:50:40.223Z,1368
2018-06-04T03:51:39.999Z,1420
2018-06-04T03:52:39.711Z,1560
2018-06-04T03:53:39.445Z,1884
2018-06-04T03:54:40.236Z,2252
2018-06-04T03:55:39.989Z,2532
2018-06-04T03:56:40.044Z,2668
2018-06-04T03:57:40.009Z,2788
2018-06-04T03:58:39.727Z,2904
2018-06-04T03:59:39.972Z,3044
2018-06-04T04:00:39.970Z,3100
2018-06-04T04:01:40.020Z,3116
2018-06-04T04:02:40.031Z,3336
2018-06-04T04:03:39.734Z,3492
2018-06-04T04:04:39.986Z,3676
2018-06-04T04:05:39.989Z,3892
2018-06-04T04:06:40.019Z,4104
2018-06-04T04:07:39.735Z,4296
2018-06-04T04:08:40.014Z,4448
2018-06-04T04:09:39.725Z,4608
2018-06-04T04:10:39.499Z,4692
2018-06-04T04:11:39.808Z,4812
2018-06-04T04:12:40.265Z,4860
2018-06-04T04:13:39.749Z,4800
2018-06-04T04:14:39.793Z,4816
2018-06-04T04:15:40.030Z,4940
2018-06-04T04:16:40.319Z,5204
2018-06-04T04:17:39.504Z,5512
2018-06-04T04:18:40.029Z,5788
2018-06-04T04:19:39.781Z,5936
2018-06-04T04:20:40.295Z,6160
2018-06-04T04:21:39.774Z,6400
2018-06-04T04:22:40.055Z,6624
2018-06-04T04:23:39.521Z,6684
2018-06-04T04:24:40.051Z,6692
2018-06-04T04:25:40.528Z,7040
2018-06-04T04:26:40.189Z,7220
2018-06-04T04:27:40.077Z,7312
2018-06-04T04:28:40.065Z,7348
2018-06-04T04:29:40.064Z,7552
2018-06-04T04:30:40.346Z,7664
2018-06-04T04:31:40.341Z,7716
2018-06-04T04:32:40.104Z,7760
2018-06-04T04:33:39.829Z,7468
2018-06-04T04:34:40.368Z,6848
2018-06-04T04:35:40.356Z,8048
2018-06-04T04:36:39.907Z,8380
2018-06-04T04:37:40.119Z,8532
2018-06-04T04:38:40.128Z,8712
2018-06-04T04:39:40.115Z,8876
2018-06-04T04:40:40.115Z,9060
2018-06-04T04:41:39.928Z,8976
2018-06-04T04:42:40.385Z,8740
2018-06-04T04:43:40.425Z,8884
2018-06-04T04:44:40.396Z,9320
2018-06-04T04:45:40.132Z,9576
2018-06-04T04:46:40.525Z,9640
2018-06-04T04:47:40.160Z,9740
2018-06-04T04:48:40.161Z,9860
2018-06-04T04:49:40.153Z,10056
2018-06-04T04:50:40.168Z,10148
2018-06-04T04:51:39.911Z,10248
2018-06-04T04:52:40.202Z,10408
2018-06-04T04:53:40.192Z,10496
2018-06-04T04:54:40.193Z,10548
2018-06-04T04:55:40.470Z,10600
2018-06-04T04:56:40.215Z,10692
2018-06-04T04:57:40.210Z,5404
2018-06-04T04:58:40.235Z,5968
2018-06-04T04:59:40.389Z,6976
2018-06-04T05:00:39.738Z,6664
2018-06-04T05:01:40.247Z,6268
2018-06-04T05:02:39.963Z,6044
2018-06-04T05:03:40.243Z,5732
2018-06-04T05:04:40.267Z,5468
2018-06-04T05:05:40.259Z,5332
2018-06-04T05:06:40.006Z,5248
2018-06-04T05:07:40.523Z,5172
2018-06-04T05:08:40.396Z,5128
2018-06-04T05:09:40.547Z,11884
2018-06-04T05:10:40.026Z,11932
2018-06-04T05:11:40.565Z,5224
2018-06-04T05:12:40.277Z,5160
2018-06-04T05:13:40.308Z,5208
2018-06-04T05:14:40.564Z,5264
2018-06-04T05:15:40.296Z,5316
2018-06-04T05:16:40.308Z,5372
2018-06-04T05:17:40.565Z,5412
2018-06-04T05:18:40.310Z,5448
2018-06-04T05:19:40.074Z,12680
2018-06-04T05:20:40.329Z,5524
2018-06-04T05:21:40.076Z,5600
2018-06-04T05:22:40.599Z,5632
2018-06-04T05:23:40.598Z,5652
2018-06-04T05:24:40.622Z,5668
2018-06-04T05:25:40.097Z,5700
2018-06-04T05:26:43.614Z,5724
2018-06-04T05:27:40.114Z,5740
2018-06-04T05:28:40.128Z,5744
2018-06-04T05:29:40.361Z,5756
2018-06-04T05:30:40.629Z,5776
2018-06-04T05:31:40.361Z,5816
2018-06-04T05:32:40.367Z,5860
2018-06-04T05:33:39.888Z,5896
2018-06-04T05:34:40.366Z,5932
2018-06-04T05:35:40.392Z,5980
2018-06-04T05:36:40.390Z,6024
2018-06-04T05:37:40.400Z,6064
2018-06-04T05:38:40.134Z,6116
2018-06-04T05:39:40.390Z,6188
2018-06-04T05:40:40.686Z,6288
2018-06-04T05:41:40.450Z,6424
2018-06-04T05:42:40.664Z,6564
2018-06-04T05:43:40.148Z,6708
2018-06-04T05:44:40.673Z,6864
2018-06-04T05:45:40.682Z,7064
2018-06-04T05:46:40.434Z,7256
2018-06-04T05:47:40.688Z,7468
2018-06-04T05:48:40.682Z,7716
2018-06-04T05:49:40.688Z,7980
2018-06-04T05:50:40.696Z,8212
2018-06-04T05:51:40.724Z,8476
2018-06-04T05:52:40.467Z,8812
2018-06-04T05:53:40.702Z,9264
2018-06-04T05:54:40.458Z,9892
2018-06-04T05:55:40.450Z,10568
2018-06-04T05:56:40.257Z,11452
2018-06-04T05:57:40.721Z,12124
2018-06-04T05:58:40.467Z,12620
2018-06-04T05:59:40.460Z,12932
2018-06-04T06:00:40.221Z,13176
2018-06-04T06:01:40.275Z,13336
2018-06-04T06:02:40.787Z,13460
2018-06-04T06:03:40.758Z,13768
2018-06-04T06:04:40.773Z,13872
2018-06-04T06:05:40.494Z,13980
2018-06-04T06:06:40.500Z,14096
2018-06-04T06:07:40.524Z,14200
2018-06-04T06:08:40.246Z,14132
2018-06-04T06:09:40.798Z,14208
2018-06-04T06:10:40.803Z,14244
2018-06-04T06:11:40.838Z,14284
2018-06-04T06:12:40.797Z,15128
2018-06-04T06:23:18.970Z,15120
2018-06-04T06:24:18.964Z,15208
2018-06-04T06:25:19.285Z,15276
2018-06-04T06:26:19.348Z,15304
2018-06-04T06:27:19.506Z,15328
2018-06-04T06:28:19.258Z,15384
2018-06-04T06:29:19.537Z,15304
2018-06-04T06:30:19.541Z,15300
2018-06-04T06:31:19.334Z,15584
2018-06-04T06:32:19.321Z,15436
2018-06-04T06:33:19.281Z,15452
2018-06-04T06:34:19.027Z,15328
2018-06-04T06:35:19.034Z,15400
2018-06-04T06:36:19.617Z,15444
2018-06-04T06:37:19.569Z,15444
2018-06-04T06:38:19.082Z,15500
2018-06-04T06:39:19.082Z,15572
2018-06-04T06:40:19.623Z,15524
2018-06-04T06:41:19.391Z,15480
2018-06-04T06:42:19.639Z,15528
2018-06-04T06:43:19.164Z,15524
2018-06-04T06:44:19.114Z,15604
2018-06-04T06:45:19.428Z,15608
2018-06-04T06:46:19.411Z,15564
2018-06-04T06:47:19.416Z,15428
2018-06-04T06:48:19.688Z,15432
2018-06-04T06:49:19.182Z,15436
2018-06-04T06:50:19.294Z,15432
2018-06-04T06:51:19.548Z,15380
2018-06-04T06:52:19.702Z,15428
2018-06-04T06:53:18.938Z,15388
2018-06-04T06:54:19.753Z,15360
2018-06-04T06:55:19.517Z,15320
2018-06-04T06:56:19.530Z,15264
2018-06-04T06:57:19.503Z,15060
2018-06-04T06:58:19.790Z,14904
2018-06-04T06:59:19.536Z,14716
2018-06-04T07:00:19.530Z,14496
2018-06-04T07:01:19.813Z,14232
2018-06-04T07:02:19.827Z,13848
2018-06-04T07:03:19.571Z,13272
2018-06-04T07:04:19.573Z,12708
2018-06-04T07:05:19.317Z,12668
2018-06-04T07:06:19.593Z,12844
2018-06-04T07:07:19.657Z,12844
2018-06-04T07:08:19.664Z,12912
2018-06-04T07:09:19.875Z,13040
2018-06-04T07:10:19.629Z,13136
2018-06-04T07:11:19.727Z,13080
2018-06-04T07:12:19.650Z,13168
2018-06-04T07:13:19.759Z,13320
2018-06-04T07:14:20.177Z,13676
2018-06-04T07:15:19.715Z,14116
2018-06-04T07:16:19.698Z,14340
2018-06-04T07:17:19.971Z,14348
2018-06-04T07:18:19.429Z,14376
2018-06-04T07:19:19.465Z,14488
2018-06-04T07:20:19.725Z,14472
2018-06-04T07:21:19.788Z,14440
2018-06-04T07:22:20.019Z,14392
2018-06-04T07:23:19.762Z,14320
2018-06-04T07:24:19.776Z,14276
2018-06-04T07:25:19.764Z,14260
2018-06-04T07:26:20.086Z,14256
2018-06-04T07:27:20.046Z,14168
2018-06-04T07:28:19.781Z,14000
2018-06-04T07:29:19.794Z,13848
2018-06-04T07:30:19.815Z,13984
2018-06-04T07:31:19.570Z,14268
2018-06-04T07:32:19.571Z,14376
2018-06-04T07:33:19.309Z,14480
2018-06-04T07:34:19.877Z,14536
2018-06-04T07:35:19.847Z,14528
2018-06-04T07:36:19.386Z,14620
2018-06-04T07:37:19.619Z,14528
2018-06-04T07:38:19.355Z,14476
2018-06-04T07:39:20.148Z,14436
2018-06-04T07:40:19.381Z,14396
2018-06-04T07:41:20.480Z,14372
2018-06-04T07:42:19.914Z,14348
2018-06-04T07:43:19.746Z,14332
2018-06-04T07:44:19.504Z,14296
2018-06-04T07:45:20.204Z,14360
2018-06-04T07:46:19.958Z,14280
2018-06-04T07:47:20.240Z,14244
2018-06-04T07:48:20.296Z,14224
2018-06-04T07:49:19.988Z,14140
2018-06-04T07:50:20.023Z,14088
2018-06-04T07:51:20.079Z,14028
2018-06-04T07:52:19.754Z,13996
2018-06-04T07:53:19.984Z,14028
2018-06-04T07:54:20.297Z,13892
2018-06-04T07:55:20.044Z,13788
2018-06-04T07:56:19.786Z,13736
2018-06-04T07:57:20.180Z,13688
2018-06-04T07:58:20.324Z,13624
2018-06-04T07:59:19.810Z,13548
2018-06-04T08:00:20.361Z,13460
2018-06-04T08:01:19.899Z,13368
2018-06-04T08:02:20.122Z,13304
2018-06-04T08:03:20.117Z,13232
2018-06-04T08:04:20.548Z,13176
2018-06-04T08:05:20.395Z,13116
2018-06-04T08:06:20.251Z,13052
2018-06-04T08:07:20.165Z,13000
2018-06-04T08:08:20.182Z,12944
2018-06-04T08:09:20.438Z,12868
2018-06-04T08:10:20.419Z,12804
2018-06-04T08:11:20.248Z,12752
2018-06-04T08:12:19.942Z,12680
2018-06-04T08:13:20.279Z,12616
2018-06-04T08:14:20.233Z,12536
2018-06-04T08:15:20.224Z,12452
2018-06-04T08:16:20.306Z,12384
2018-06-04T08:17:20.264Z,12312
2018-06-04T08:18:19.992Z,12228
2018-06-04T08:19:20.277Z,12148
2018-06-04T08:20:20.286Z,12144
2018-06-04T08:21:20.554Z,11932
2018-06-04T08:22:20.293Z,11864
2018-06-04T08:23:20.567Z,11788
2018-06-04T08:24:20.314Z,11720
2018-06-04T08:25:20.328Z,11676
2018-06-04T08:26:20.376Z,11640
2018-06-04T08:27:20.375Z,11588
2018-06-04T08:28:20.625Z,11540
2018-06-04T08:29:20.893Z,11468
2018-06-04T08:30:20.368Z,11388
2018-06-04T08:31:20.690Z,11316
2018-06-04T08:32:20.697Z,11300
2018-06-04T08:33:20.392Z,11268
2018-06-04T08:34:20.664Z,11220
2018-06-04T08:35:20.176Z,11168
2018-06-04T08:36:20.682Z,11076
2018-06-04T08:37:20.428Z,11036
2018-06-04T08:38:20.446Z,11044
2018-06-04T08:39:20.204Z,10988
2018-06-04T08:40:20.830Z,10956
2018-06-04T08:41:20.196Z,10900
2018-06-04T08:42:20.744Z,10860
2018-06-04T08:43:20.012Z,10764
2018-06-04T08:44:20.240Z,10676
2018-06-04T08:45:20.494Z,10616
2018-06-04T08:46:20.017Z,10536
2018-06-04T08:47:20.278Z,10472
2018-06-04T08:48:20.544Z,10412
2018-06-04T08:49:20.543Z,10360
2018-06-04T08:50:20.830Z,10308
2018-06-04T08:51:20.585Z,10288
2018-06-04T08:52:20.850Z,10252
2018-06-04T08:53:20.827Z,10224
2018-06-04T08:54:20.582Z,10188
2018-06-04T08:55:20.590Z,10156
2018-06-04T08:56:21.050Z,10144
2018-06-04T08:57:20.638Z,10140
2018-06-04T08:58:20.628Z,10120
2018-06-04T08:59:20.644Z,10120
2018-06-04T09:00:20.109Z,10120
2018-06-04T09:01:20.386Z,10068
2018-06-04T09:02:20.396Z,10028
2018-06-04T09:03:20.921Z,9972
2018-06-04T09:04:20.692Z,9940
2018-06-04T09:05:20.948Z,9896
2018-06-04T09:06:20.949Z,9876
2018-06-04T09:07:20.698Z,9856
2018-06-04T09:08:20.433Z,9804
2018-06-04T09:09:21.031Z,9776
2018-06-04T09:10:20.711Z,9756
2018-06-04T09:11:20.738Z,9732
2018-06-04T09:12:20.736Z,9732
2018-06-04T09:13:20.522Z,9720
2018-06-04T09:14:20.482Z,9732
2018-06-04T09:15:20.245Z,9724
2018-06-04T09:16:20.495Z,9728
2018-06-04T09:17:21.064Z,9776
2018-06-04T09:18:20.771Z,9788
2018-06-04T09:19:21.049Z,9784
2018-06-04T09:20:20.790Z,9816
2018-06-04T09:21:20.822Z,9832
2018-06-04T09:22:20.795Z,9804
2018-06-04T09:23:20.535Z,9824
2018-06-04T09:24:20.799Z,9808
2018-06-04T09:25:20.812Z,9844
2018-06-04T09:26:20.880Z,9808
2018-06-04T09:27:20.569Z,9828
2018-06-04T09:28:20.835Z,9860
2018-06-04T09:29:21.109Z,9976
2018-06-04T09:30:21.118Z,9892
2018-06-04T09:31:20.684Z,9816
2018-06-04T09:32:21.027Z,9836
2018-06-04T09:33:20.869Z,9872
2018-06-04T09:34:20.344Z,9936
2018-06-04T09:35:20.359Z,9948
2018-06-04T09:36:21.196Z,9988
2018-06-04T09:37:20.648Z,9988
2018-06-04T09:38:21.165Z,10008
2018-06-04T09:39:20.898Z,10140
2018-06-04T09:40:20.913Z,10116
2018-06-04T09:41:20.647Z,10168
2018-06-04T09:42:20.667Z,10240
2018-06-04T09:43:20.664Z,10224
2018-06-04T09:44:20.998Z,10216
2018-06-04T09:45:20.967Z,10260
2018-06-04T09:46:21.255Z,10380
2018-06-04T09:47:20.450Z,10536
2018-06-04T09:48:20.444Z,10496
2018-06-04T09:49:20.717Z,10516
2018-06-04T09:50:21.235Z,10548
2018-06-04T09:51:21.360Z,10568
2018-06-04T09:52:21.003Z,10564
2018-06-04T09:53:20.743Z,10640
2018-06-04T09:54:21.009Z,10696
2018-06-04T09:55:20.481Z,10688
2018-06-04T09:56:21.312Z,10788
2018-06-04T09:57:21.261Z,10804
2018-06-04T09:58:21.003Z,10888
2018-06-04T09:59:21.064Z,11072
2018-06-04T10:00:20.778Z,11304
2018-06-04T10:01:21.298Z,7488
2018-06-04T10:02:21.033Z,12000
2018-06-04T10:03:21.327Z,12304
2018-06-04T10:04:22.102Z,12364
2018-06-04T10:05:21.317Z,12892
2018-06-04T10:06:21.085Z,8400
2018-06-04T10:07:20.818Z,12240
2018-06-04T10:08:20.814Z,12408
2018-06-04T10:09:21.099Z,12312
2018-06-04T10:10:21.100Z,11972
2018-06-04T10:11:21.205Z,11880
2018-06-04T10:12:21.117Z,11956
2018-06-04T10:13:20.592Z,11940
2018-06-04T10:14:21.431Z,11976
2018-06-04T10:15:20.862Z,12092
2018-06-04T10:16:20.917Z,12160
2018-06-04T10:17:21.129Z,12140
2018-06-04T10:18:20.874Z,12056
2018-06-04T10:19:20.918Z,12016
2018-06-04T10:20:21.177Z,12144
2018-06-04T10:21:21.240Z,12172
2018-06-04T10:22:21.442Z,9944
2018-06-04T10:53:49.442Z,9984
2018-06-04T10:54:49.152Z,9316
2018-06-04T10:55:49.174Z,7320
2018-06-04T10:56:49.410Z,9712
2018-06-04T10:57:49.149Z,10028
2018-06-04T10:58:48.899Z,10052
2018-06-04T10:59:48.634Z,10092
2018-06-04T11:00:49.446Z,10216
2018-06-04T11:01:49.186Z,10380
2018-06-04T11:02:48.667Z,10356
2018-06-04T11:03:49.727Z,10204
2018-06-04T11:04:49.227Z,9228
2018-06-04T11:05:49.454Z,8068
2018-06-04T11:06:49.477Z,8100
2018-06-04T11:07:49.487Z,10416
2018-06-04T11:08:49.222Z,11064
2018-06-04T11:09:48.956Z,11260
2018-06-04T11:10:49.241Z,11444
2018-06-04T11:11:48.981Z,11536
2018-06-04T11:12:49.523Z,11512
2018-06-04T11:13:48.985Z,11500
2018-06-04T11:14:49.575Z,11436
2018-06-04T11:15:48.984Z,11376
2018-06-04T11:16:48.995Z,11292
2018-06-04T11:17:49.520Z,11168
2018-06-04T11:18:49.357Z,10996
2018-06-04T11:19:49.017Z,10796
2018-06-04T11:20:49.290Z,10584
2018-06-04T11:21:49.319Z,10428
2018-06-04T11:22:49.556Z,10160
2018-06-04T11:23:51.490Z,9820
2018-06-04T11:24:49.058Z,9520
2018-06-04T11:25:49.982Z,9268
2018-06-04T11:26:49.318Z,9108
2018-06-04T11:27:49.332Z,9052
2018-06-04T11:28:49.332Z,9060
2018-06-04T11:29:49.338Z,9100
2018-06-04T11:30:49.079Z,9180
2018-06-04T11:31:49.375Z,9096
2018-06-04T11:32:49.354Z,8928
2018-06-04T11:33:49.369Z,8848
2018-06-04T11:34:49.633Z,6644
2018-06-04T11:35:49.658Z,8764
2018-06-04T11:36:49.686Z,8840
2018-06-04T11:37:49.661Z,8964
2018-06-04T11:38:49.441Z,9080
2018-06-04T11:39:48.883Z,9072
2018-06-04T11:40:49.412Z,9068
2018-06-04T11:41:49.715Z,9048
2018-06-04T11:42:49.445Z,9008
2018-06-04T11:43:49.824Z,8928
2018-06-04T11:44:49.706Z,8892
2018-06-04T11:45:49.210Z,8800
2018-06-04T11:46:49.455Z,8820
2018-06-04T11:47:49.206Z,8820
2018-06-04T11:48:49.249Z,8876
2018-06-04T11:49:49.745Z,8972
2018-06-04T11:50:49.469Z,9000
2018-06-04T11:51:49.507Z,8976
2018-06-04T11:52:49.230Z,8700
2018-06-04T11:53:49.496Z,8424
2018-06-04T11:54:49.511Z,8704
2018-06-04T11:55:49.277Z,8692
2018-06-04T11:56:49.713Z,8768
2018-06-04T11:57:49.523Z,8804
2018-06-04T11:58:49.712Z,8712
2018-06-04T11:59:49.547Z,7456
2018-06-04T12:00:49.597Z,8416
2018-06-04T12:01:49.378Z,5888
2018-06-04T12:02:49.837Z,5748
2018-06-04T12:03:49.849Z,6932
2018-06-04T12:04:49.578Z,5544
2018-06-04T12:05:49.355Z,5488
2018-06-04T12:06:49.598Z,5552
2018-06-04T12:07:49.645Z,5676
2018-06-04T12:08:49.355Z,5732
2018-06-04T12:09:49.090Z,5868
2018-06-04T12:10:49.866Z,5964
2018-06-04T12:11:49.928Z,6632
2018-06-04T12:12:49.895Z,7788
2018-06-04T12:13:49.646Z,6164
2018-06-04T12:14:49.648Z,7556
2018-06-04T12:15:49.639Z,8164
2018-06-04T12:16:49.385Z,7200
2018-06-04T12:17:49.640Z,7484
2018-06-04T12:18:49.657Z,7964
2018-06-04T12:19:49.656Z,6812
2018-06-04T12:20:49.674Z,6796
2018-06-04T12:21:49.156Z,7068
2018-06-04T12:22:49.419Z,7592
2018-06-04T12:23:49.702Z,8376
2018-06-04T12:24:49.696Z,8436
2018-06-04T12:25:49.180Z,8480
2018-06-04T12:26:49.720Z,8500
2018-06-04T12:27:49.958Z,8504
2018-06-04T12:28:49.471Z,8384
2018-06-04T12:29:49.489Z,8600
2018-06-04T12:30:49.740Z,8648
2018-06-04T12:31:49.490Z,8688
2018-06-04T12:32:49.997Z,8792
2018-06-04T12:33:49.488Z,9000
2018-06-04T12:34:49.777Z,9152
2018-06-04T12:35:49.778Z,9384
2018-06-04T12:36:50.063Z,9568
2018-06-04T12:37:49.780Z,7844
2018-06-04T12:38:49.775Z,7900
2018-06-04T12:39:49.802Z,8892
2018-06-04T12:40:50.059Z,7816
2018-06-04T12:41:50.053Z,7732
2018-06-04T12:42:49.296Z,7688
2018-06-04T12:43:50.072Z,7708
2018-06-04T12:44:49.839Z,7364
2018-06-04T12:45:49.818Z,7064
2018-06-04T12:46:50.139Z,6924
2018-06-04T12:47:49.315Z,6860
2018-06-04T12:48:49.844Z,7512
2018-06-04T12:49:49.589Z,7224
2018-06-04T12:50:49.869Z,7684
2018-06-04T12:51:50.112Z,8312
2018-06-04T12:52:49.859Z,8688
2018-06-04T12:53:50.136Z,8152
2018-06-04T12:54:50.031Z,8804
2018-06-04T12:55:49.618Z,8716
2018-06-04T12:56:49.631Z,8616
2018-06-04T12:57:50.143Z,8584
2018-06-04T12:58:50.149Z,8548
2018-06-04T12:59:49.653Z,8568
2018-06-04T13:00:49.661Z,8580
2018-06-04T13:01:50.175Z,8696
2018-06-04T13:02:49.661Z,8660
2018-06-04T13:03:49.936Z,8640
2018-06-04T13:04:49.872Z,8688
2018-06-04T13:05:50.221Z,8692
2018-06-04T13:06:49.687Z,8784
2018-06-04T13:07:49.695Z,8880
2018-06-04T13:08:49.950Z,9048
2018-06-04T13:09:50.228Z,9264
2018-06-04T13:10:49.720Z,9564
2018-06-04T13:11:49.713Z,9768
2018-06-04T13:12:49.984Z,9744
2018-06-04T13:13:50.005Z,9820
2018-06-04T13:14:49.490Z,9836
2018-06-04T13:15:49.995Z,9812
2018-06-04T13:16:50.031Z,9816
2018-06-04T13:17:50.024Z,9812
2018-06-04T13:18:49.767Z,9920
2018-06-04T13:19:49.796Z,9960
2018-06-04T13:20:50.034Z,9796
2018-06-04T13:21:50.048Z,9672
2018-06-04T13:22:50.317Z,9516
2018-06-04T13:23:50.318Z,9052
2018-06-04T13:24:54.623Z,8160
2018-06-04T13:25:49.554Z,7252
2018-06-04T13:26:50.083Z,6472
2018-06-04T13:27:50.495Z,6360
2018-06-04T13:28:50.106Z,6340
2018-06-04T13:29:50.366Z,6376
2018-06-04T13:30:50.104Z,6428
2018-06-04T13:31:50.382Z,6428
2018-06-04T13:32:50.127Z,6448
2018-06-04T13:33:50.131Z,6428
2018-06-04T13:34:49.882Z,6356
2018-06-04T13:35:49.877Z,6372
2018-06-04T13:36:49.888Z,7704
2018-06-04T13:37:49.878Z,6980
2018-06-04T13:38:50.174Z,6220
2018-06-04T13:39:50.417Z,6292
2018-06-04T13:40:49.925Z,6596
2018-06-04T13:41:49.662Z,7496
2018-06-04T13:42:50.178Z,8040
2018-06-04T13:43:50.435Z,8108
2018-06-04T13:44:50.193Z,8108
2018-06-04T13:45:49.704Z,8120
2018-06-04T13:46:50.198Z,7884
2018-06-04T13:47:50.471Z,7916
2018-06-04T13:48:50.211Z,7940
2018-06-04T13:49:50.506Z,7872
2018-06-04T13:50:50.231Z,7836
2018-06-04T13:51:50.240Z,7804
2018-06-04T13:52:50.496Z,7852
2018-06-04T13:53:50.243Z,7816
2018-06-04T13:54:50.497Z,7804
2018-06-04T13:55:50.514Z,7784
2018-06-04T13:56:50.521Z,7772
2018-06-04T13:57:49.754Z,7792
2018-06-04T13:58:50.014Z,7780
2018-06-04T13:59:50.629Z,7800
2018-06-04T14:00:50.025Z,7860
2018-06-04T14:01:50.054Z,7932
2018-06-04T14:02:50.784Z,7920
2018-06-04T14:03:50.356Z,7992
2018-06-04T14:04:50.364Z,8044
2018-06-04T14:05:50.582Z,8076
2018-06-04T14:06:50.358Z,8060
2018-06-04T14:07:50.326Z,7840
2018-06-04T14:08:50.686Z,7040
2018-06-04T14:09:50.597Z,6540